sensor_id;sensor_type;location;lat;lon;timestamp;P1;durP1;ratioP1;P2;durP2;ratioP2
72895;SDS011;61036;53.224;6.554;2022-12-26T00:00:36;28.10;;;15.50;;
72895;SDS011;61036;53.224;6.554;2022-12-26T00:03:06;28.23;;;16.17;;
72895;SDS011;61036;53.224;6.554;2022-12-26T00:05:35;28.60;;;15.13;;
72895;SDS011;61036;53.224;6.554;2022-12-26T00:08:01;25.03;;;14.70;;
72895;SDS011;61036;53.224;6.554;2022-12-26T00:10:31;23.80;;;14.77;;
72895;SDS011;61036;53.224;6.554;2022-12-26T00:12:56;27.80;;;16.33;;
72895;SDS011;61036;53.224;6.554;2022-12-26T00:15:22;28.57;;;16.27;;
72895;SDS011;61036;53.224;6.554;2022-12-26T00:17:47;25.80;;;15.03;;
72895;SDS011;61036;53.224;6.554;2022-12-26T00:20:13;23.03;;;13.97;;
72895;SDS011;61036;53.224;6.554;2022-12-26T00:22:39;22.97;;;14.70;;
72895;SDS011;61036;53.224;6.554;2022-12-26T00:25:04;30.57;;;17.67;;
72895;SDS011;61036;53.224;6.554;2022-12-26T00:27:31;29.83;;;15.97;;
72895;SDS011;61036;53.224;6.554;2022-12-26T00:29:56;29.27;;;16.87;;
72895;SDS011;61036;53.224;6.554;2022-12-26T00:32:23;29.80;;;15.73;;
72895;SDS011;61036;53.224;6.554;2022-12-26T00:34:49;28.63;;;15.73;;
72895;SDS011;61036;53.224;6.554;2022-12-26T00:37:14;28.70;;;16.10;;
72895;SDS011;61036;53.224;6.554;2022-12-26T00:39:39;27.07;;;15.03;;
72895;SDS011;61036;53.224;6.554;2022-12-26T00:42:10;28.07;;;14.63;;
72895;SDS011;61036;53.224;6.554;2022-12-26T00:44:36;27.53;;;15.47;;
72895;SDS011;61036;53.224;6.554;2022-12-26T00:47:03;27.10;;;15.07;;
72895;SDS011;61036;53.224;6.554;2022-12-26T00:49:28;24.70;;;13.80;;
72895;SDS011;61036;53.224;6.554;2022-12-26T00:51:54;28.07;;;15.40;;
72895;SDS011;61036;53.224;6.554;2022-12-26T00:54:24;25.03;;;14.50;;
72895;SDS011;61036;53.224;6.554;2022-12-26T00:56:52;27.20;;;15.27;;
72895;SDS011;61036;53.224;6.554;2022-12-26T00:59:17;28.07;;;16.37;;
72895;SDS011;61036;53.224;6.554;2022-12-26T01:01:45;25.93;;;14.03;;
72895;SDS011;61036;53.224;6.554;2022-12-26T01:04:11;27.60;;;15.97;;
72895;SDS011;61036;53.224;6.554;2022-12-26T01:06:37;25.13;;;14.37;;
72895;SDS011;61036;53.224;6.554;2022-12-26T01:09:03;27.10;;;14.67;;
72895;SDS011;61036;53.224;6.554;2022-12-26T01:11:35;29.43;;;15.63;;
72895;SDS011;61036;53.224;6.554;2022-12-26T01:14:05;33.00;;;17.20;;
72895;SDS011;61036;53.224;6.554;2022-12-26T01:16:35;27.90;;;15.67;;
72895;SDS011;61036;53.224;6.554;2022-12-26T01:19:01;35.77;;;17.73;;
72895;SDS011;61036;53.224;6.554;2022-12-26T01:21:29;33.30;;;17.83;;
72895;SDS011;61036;53.224;6.554;2022-12-26T01:23:55;32.00;;;17.33;;
72895;SDS011;61036;53.224;6.554;2022-12-26T01:26:25;34.73;;;17.80;;
72895;SDS011;61036;53.224;6.554;2022-12-26T01:28:51;36.13;;;18.07;;
72895;SDS011;61036;53.224;6.554;2022-12-26T01:31:20;32.30;;;17.33;;
72895;SDS011;61036;53.224;6.554;2022-12-26T01:33:47;35.00;;;17.00;;
72895;SDS011;61036;53.224;6.554;2022-12-26T01:36:14;32.20;;;17.33;;
72895;SDS011;61036;53.224;6.554;2022-12-26T01:38:42;34.77;;;18.10;;
72895;SDS011;61036;53.224;6.554;2022-12-26T01:41:10;32.73;;;17.63;;
72895;SDS011;61036;53.224;6.554;2022-12-26T01:46:23;28.07;;;15.67;;
72895;SDS011;61036;53.224;6.554;2022-12-26T01:48:57;31.33;;;16.90;;
72895;SDS011;61036;53.224;6.554;2022-12-26T01:51:31;31.07;;;16.40;;
72895;SDS011;61036;53.224;6.554;2022-12-26T01:53:59;32.27;;;17.47;;
72895;SDS011;61036;53.224;6.554;2022-12-26T01:56:31;33.37;;;17.07;;
72895;SDS011;61036;53.224;6.554;2022-12-26T01:59:05;31.23;;;16.07;;
72895;SDS011;61036;53.224;6.554;2022-12-26T02:01:36;28.80;;;15.77;;
72895;SDS011;61036;53.224;6.554;2022-12-26T02:04:07;32.20;;;16.57;;
72895;SDS011;61036;53.224;6.554;2022-12-26T02:06:57;30.33;;;16.50;;
72895;SDS011;61036;53.224;6.554;2022-12-26T02:09:23;30.67;;;15.97;;
72895;SDS011;61036;53.224;6.554;2022-12-26T02:11:53;31.87;;;17.13;;
72895;SDS011;61036;53.224;6.554;2022-12-26T02:14:25;30.13;;;17.40;;
72895;SDS011;61036;53.224;6.554;2022-12-26T02:16:53;30.67;;;15.50;;
72895;SDS011;61036;53.224;6.554;2022-12-26T02:19:43;31.13;;;15.93;;
72895;SDS011;61036;53.224;6.554;2022-12-26T02:39:46;25.17;;;14.07;;
72895;SDS011;61036;53.224;6.554;2022-12-26T02:56:34;24.60;;;14.10;;
72895;SDS011;61036;53.224;6.554;2022-12-26T03:02:37;24.10;;;14.67;;
72895;SDS011;61036;53.224;6.554;2022-12-26T03:05:27;19.87;;;12.93;;
72895;SDS011;61036;53.224;6.554;2022-12-26T03:08:27;22.77;;;13.17;;
72895;SDS011;61036;53.224;6.554;2022-12-26T03:11:15;23.23;;;14.77;;
72895;SDS011;61036;53.224;6.554;2022-12-26T03:14:20;23.93;;;15.43;;
72895;SDS011;61036;53.224;6.554;2022-12-26T03:16:53;26.27;;;16.03;;
72895;SDS011;61036;53.224;6.554;2022-12-26T03:19:45;24.53;;;16.40;;
72895;SDS011;61036;53.224;6.554;2022-12-26T03:22:34;22.40;;;15.47;;
72895;SDS011;61036;53.224;6.554;2022-12-26T03:25:08;22.37;;;16.13;;
72895;SDS011;61036;53.224;6.554;2022-12-26T03:28:11;24.40;;;16.43;;
72895;SDS011;61036;53.224;6.554;2022-12-26T03:30:36;25.50;;;17.13;;
72895;SDS011;61036;53.224;6.554;2022-12-26T03:33:27;24.27;;;17.57;;
72895;SDS011;61036;53.224;6.554;2022-12-26T03:36:44;26.10;;;18.57;;
72895;SDS011;61036;53.224;6.554;2022-12-26T03:48:34;30.20;;;20.03;;
72895;SDS011;61036;53.224;6.554;2022-12-26T03:51:31;28.60;;;20.07;;
72895;SDS011;61036;53.224;6.554;2022-12-26T03:54:34;29.60;;;20.53;;
72895;SDS011;61036;53.224;6.554;2022-12-26T03:57:28;35.07;;;22.17;;
72895;SDS011;61036;53.224;6.554;2022-12-26T04:00:31;29.97;;;20.27;;
72895;SDS011;61036;53.224;6.554;2022-12-26T04:03:18;32.33;;;21.53;;
72895;SDS011;61036;53.224;6.554;2022-12-26T04:06:12;31.07;;;20.23;;
72895;SDS011;61036;53.224;6.554;2022-12-26T04:09:03;29.77;;;19.67;;
72895;SDS011;61036;53.224;6.554;2022-12-26T04:11:52;27.13;;;18.23;;
72895;SDS011;61036;53.224;6.554;2022-12-26T04:15:01;27.07;;;18.63;;
72895;SDS011;61036;53.224;6.554;2022-12-26T04:17:55;31.20;;;20.20;;
72895;SDS011;61036;53.224;6.554;2022-12-26T04:24:14;29.50;;;19.13;;
72895;SDS011;61036;53.224;6.554;2022-12-26T04:27:16;29.83;;;20.53;;
72895;SDS011;61036;53.224;6.554;2022-12-26T04:30:04;32.63;;;20.50;;
72895;SDS011;61036;53.224;6.554;2022-12-26T04:32:49;31.83;;;21.17;;
72895;SDS011;61036;53.224;6.554;2022-12-26T04:38:40;30.17;;;20.53;;
72895;SDS011;61036;53.224;6.554;2022-12-26T04:41:30;29.07;;;19.87;;
72895;SDS011;61036;53.224;6.554;2022-12-26T04:44:16;31.10;;;19.73;;
72895;SDS011;61036;53.224;6.554;2022-12-26T04:46:44;31.90;;;20.43;;
72895;SDS011;61036;53.224;6.554;2022-12-26T04:49:12;32.40;;;21.20;;
72895;SDS011;61036;53.224;6.554;2022-12-26T04:52:00;33.43;;;21.43;;
72895;SDS011;61036;53.224;6.554;2022-12-26T04:54:28;32.00;;;21.37;;
72895;SDS011;61036;53.224;6.554;2022-12-26T04:56:53;29.63;;;19.47;;
72895;SDS011;61036;53.224;6.554;2022-12-26T04:59:19;30.43;;;20.70;;
72895;SDS011;61036;53.224;6.554;2022-12-26T05:01:46;32.47;;;21.37;;
72895;SDS011;61036;53.224;6.554;2022-12-26T05:04:30;32.17;;;21.00;;
72895;SDS011;61036;53.224;6.554;2022-12-26T05:07:29;31.37;;;20.80;;
72895;SDS011;61036;53.224;6.554;2022-12-26T05:10:19;31.13;;;21.27;;
72895;SDS011;61036;53.224;6.554;2022-12-26T05:12:47;33.30;;;21.60;;
72895;SDS011;61036;53.224;6.554;2022-12-26T05:15:15;32.67;;;22.13;;
72895;SDS011;61036;53.224;6.554;2022-12-26T05:17:47;29.73;;;21.33;;
72895;SDS011;61036;53.224;6.554;2022-12-26T05:20:31;31.17;;;21.37;;
72895;SDS011;61036;53.224;6.554;2022-12-26T05:26:00;29.87;;;20.67;;
72895;SDS011;61036;53.224;6.554;2022-12-26T05:28:47;34.43;;;22.90;;
72895;SDS011;61036;53.224;6.554;2022-12-26T05:31:17;30.07;;;21.73;;
72895;SDS011;61036;53.224;6.554;2022-12-26T05:33:42;31.80;;;22.13;;
72895;SDS011;61036;53.224;6.554;2022-12-26T05:36:34;30.03;;;20.87;;
72895;SDS011;61036;53.224;6.554;2022-12-26T05:39:04;31.27;;;21.43;;
72895;SDS011;61036;53.224;6.554;2022-12-26T05:41:31;34.07;;;22.90;;
72895;SDS011;61036;53.224;6.554;2022-12-26T05:43:57;28.50;;;20.43;;
72895;SDS011;61036;53.224;6.554;2022-12-26T05:46:25;27.67;;;19.87;;
72895;SDS011;61036;53.224;6.554;2022-12-26T05:48:51;29.37;;;19.70;;
72895;SDS011;61036;53.224;6.554;2022-12-26T05:51:17;29.40;;;20.70;;
72895;SDS011;61036;53.224;6.554;2022-12-26T05:53:45;30.40;;;19.83;;
72895;SDS011;61036;53.224;6.554;2022-12-26T05:56:13;26.87;;;19.43;;
72895;SDS011;61036;53.224;6.554;2022-12-26T05:58:43;31.67;;;21.93;;
72895;SDS011;61036;53.224;6.554;2022-12-26T06:01:12;27.83;;;20.53;;
72895;SDS011;61036;53.224;6.554;2022-12-26T06:03:45;28.40;;;20.80;;
72895;SDS011;61036;53.224;6.554;2022-12-26T06:06:18;29.60;;;21.23;;
72895;SDS011;61036;53.224;6.554;2022-12-26T06:08:47;30.73;;;21.60;;
72895;SDS011;61036;53.224;6.554;2022-12-26T06:11:15;32.10;;;22.37;;
72895;SDS011;61036;53.224;6.554;2022-12-26T06:13:40;31.70;;;21.77;;
72895;SDS011;61036;53.224;6.554;2022-12-26T06:16:10;28.83;;;21.43;;
72895;SDS011;61036;53.224;6.554;2022-12-26T06:18:38;30.90;;;22.27;;
72895;SDS011;61036;53.224;6.554;2022-12-26T06:21:05;29.57;;;21.00;;
72895;SDS011;61036;53.224;6.554;2022-12-26T06:23:32;28.70;;;21.27;;
72895;SDS011;61036;53.224;6.554;2022-12-26T06:26:02;32.30;;;21.67;;
72895;SDS011;61036;53.224;6.554;2022-12-26T06:28:32;28.87;;;21.63;;
72895;SDS011;61036;53.224;6.554;2022-12-26T06:31:05;30.10;;;21.30;;
72895;SDS011;61036;53.224;6.554;2022-12-26T06:33:34;27.50;;;20.20;;
72895;SDS011;61036;53.224;6.554;2022-12-26T06:36:05;28.80;;;21.37;;
72895;SDS011;61036;53.224;6.554;2022-12-26T06:38:33;25.77;;;19.97;;
72895;SDS011;61036;53.224;6.554;2022-12-26T06:41:00;25.87;;;20.60;;
72895;SDS011;61036;53.224;6.554;2022-12-26T06:43:28;26.63;;;19.23;;
72895;SDS011;61036;53.224;6.554;2022-12-26T06:45:55;26.70;;;20.10;;
72895;SDS011;61036;53.224;6.554;2022-12-26T06:48:22;22.03;;;17.30;;
72895;SDS011;61036;53.224;6.554;2022-12-26T06:50:48;25.77;;;18.03;;
72895;SDS011;61036;53.224;6.554;2022-12-26T06:53:18;27.60;;;17.93;;
72895;SDS011;61036;53.224;6.554;2022-12-26T06:55:50;26.23;;;18.63;;
72895;SDS011;61036;53.224;6.554;2022-12-26T06:58:19;24.33;;;17.37;;
72895;SDS011;61036;53.224;6.554;2022-12-26T07:00:45;24.03;;;17.47;;
72895;SDS011;61036;53.224;6.554;2022-12-26T07:03:11;22.63;;;16.97;;
72895;SDS011;61036;53.224;6.554;2022-12-26T07:05:38;24.13;;;16.73;;
72895;SDS011;61036;53.224;6.554;2022-12-26T07:08:04;22.47;;;16.33;;
72895;SDS011;61036;53.224;6.554;2022-12-26T07:10:33;20.30;;;15.60;;
72895;SDS011;61036;53.224;6.554;2022-12-26T07:13:01;19.33;;;15.13;;
72895;SDS011;61036;53.224;6.554;2022-12-26T07:15:27;19.10;;;14.77;;
72895;SDS011;61036;53.224;6.554;2022-12-26T07:17:53;22.67;;;15.80;;
72895;SDS011;61036;53.224;6.554;2022-12-26T07:20:22;22.50;;;15.50;;
72895;SDS011;61036;53.224;6.554;2022-12-26T07:22:47;21.23;;;15.27;;
72895;SDS011;61036;53.224;6.554;2022-12-26T07:25:13;21.57;;;14.53;;
72895;SDS011;61036;53.224;6.554;2022-12-26T07:27:40;20.67;;;14.87;;
72895;SDS011;61036;53.224;6.554;2022-12-26T07:30:07;17.53;;;13.70;;
72895;SDS011;61036;53.224;6.554;2022-12-26T07:32:33;20.77;;;13.50;;
72895;SDS011;61036;53.224;6.554;2022-12-26T07:35:04;21.27;;;14.00;;
72895;SDS011;61036;53.224;6.554;2022-12-26T07:37:30;15.83;;;12.07;;
72895;SDS011;61036;53.224;6.554;2022-12-26T07:39:55;18.53;;;12.30;;
72895;SDS011;61036;53.224;6.554;2022-12-26T07:42:22;17.47;;;12.03;;
72895;SDS011;61036;53.224;6.554;2022-12-26T07:44:50;16.87;;;11.43;;
72895;SDS011;61036;53.224;6.554;2022-12-26T07:47:16;19.63;;;11.43;;
72895;SDS011;61036;53.224;6.554;2022-12-26T07:49:47;19.40;;;11.97;;
72895;SDS011;61036;53.224;6.554;2022-12-26T07:52:16;16.97;;;10.73;;
72895;SDS011;61036;53.224;6.554;2022-12-26T07:54:44;18.23;;;11.20;;
72895;SDS011;61036;53.224;6.554;2022-12-26T07:57:14;17.43;;;10.90;;
72895;SDS011;61036;53.224;6.554;2022-12-26T07:59:42;20.40;;;11.30;;
72895;SDS011;61036;53.224;6.554;2022-12-26T08:02:09;19.30;;;11.23;;
72895;SDS011;61036;53.224;6.554;2022-12-26T08:04:35;14.77;;;11.53;;
72895;SDS011;61036;53.224;6.554;2022-12-26T08:07:00;16.97;;;10.53;;
72895;SDS011;61036;53.224;6.554;2022-12-26T08:09:28;16.83;;;10.70;;
72895;SDS011;61036;53.224;6.554;2022-12-26T08:11:54;19.10;;;11.50;;
72895;SDS011;61036;53.224;6.554;2022-12-26T08:14:22;17.87;;;10.30;;
72895;SDS011;61036;53.224;6.554;2022-12-26T08:16:48;16.73;;;11.30;;
72895;SDS011;61036;53.224;6.554;2022-12-26T08:19:17;14.20;;;9.87;;
72895;SDS011;61036;53.224;6.554;2022-12-26T08:21:45;16.67;;;10.43;;
72895;SDS011;61036;53.224;6.554;2022-12-26T08:24:10;15.43;;;10.13;;
72895;SDS011;61036;53.224;6.554;2022-12-26T08:26:36;14.33;;;9.30;;
72895;SDS011;61036;53.224;6.554;2022-12-26T08:29:02;13.10;;;9.03;;
72895;SDS011;61036;53.224;6.554;2022-12-26T08:31:29;15.40;;;9.57;;
72895;SDS011;61036;53.224;6.554;2022-12-26T08:33:57;14.73;;;9.60;;
72895;SDS011;61036;53.224;6.554;2022-12-26T08:36:23;15.20;;;9.20;;
72895;SDS011;61036;53.224;6.554;2022-12-26T08:38:49;12.77;;;8.83;;
72895;SDS011;61036;53.224;6.554;2022-12-26T08:41:18;14.67;;;9.00;;
72895;SDS011;61036;53.224;6.554;2022-12-26T08:43:51;12.93;;;8.43;;
72895;SDS011;61036;53.224;6.554;2022-12-26T08:46:18;11.73;;;8.40;;
72895;SDS011;61036;53.224;6.554;2022-12-26T08:48:46;10.40;;;7.60;;
72895;SDS011;61036;53.224;6.554;2022-12-26T08:51:16;12.20;;;8.47;;
72895;SDS011;61036;53.224;6.554;2022-12-26T08:53:44;13.07;;;7.43;;
72895;SDS011;61036;53.224;6.554;2022-12-26T08:56:13;14.63;;;9.00;;
72895;SDS011;61036;53.224;6.554;2022-12-26T08:58:40;15.73;;;8.50;;
72895;SDS011;61036;53.224;6.554;2022-12-26T09:03:36;13.63;;;8.60;;
72895;SDS011;61036;53.224;6.554;2022-12-26T09:06:04;16.43;;;9.00;;
72895;SDS011;61036;53.224;6.554;2022-12-26T09:08:31;14.93;;;8.47;;
72895;SDS011;61036;53.224;6.554;2022-12-26T09:11:06;16.07;;;9.97;;
72895;SDS011;61036;53.224;6.554;2022-12-26T09:13:39;16.57;;;9.60;;
72895;SDS011;61036;53.224;6.554;2022-12-26T09:16:09;13.80;;;9.07;;
72895;SDS011;61036;53.224;6.554;2022-12-26T09:18:40;14.03;;;8.73;;
72895;SDS011;61036;53.224;6.554;2022-12-26T09:21:10;13.70;;;9.40;;
72895;SDS011;61036;53.224;6.554;2022-12-26T09:23:39;12.90;;;9.40;;
72895;SDS011;61036;53.224;6.554;2022-12-26T09:26:06;13.73;;;8.63;;
72895;SDS011;61036;53.224;6.554;2022-12-26T09:28:37;12.97;;;8.00;;
72895;SDS011;61036;53.224;6.554;2022-12-26T09:31:04;11.37;;;7.33;;
72895;SDS011;61036;53.224;6.554;2022-12-26T09:33:42;18.83;;;14.17;;
72895;SDS011;61036;53.224;6.554;2022-12-26T09:36:15;14.03;;;10.20;;
72895;SDS011;61036;53.224;6.554;2022-12-26T09:38:45;14.17;;;8.10;;
72895;SDS011;61036;53.224;6.554;2022-12-26T09:44:12;10.03;;;6.53;;
72895;SDS011;61036;53.224;6.554;2022-12-26T09:49:33;9.73;;;4.50;;
72895;SDS011;61036;53.224;6.554;2022-12-26T09:52:14;9.70;;;4.50;;
72895;SDS011;61036;53.224;6.554;2022-12-26T09:54:51;21.13;;;11.20;;
72895;SDS011;61036;53.224;6.554;2022-12-26T09:57:41;13.03;;;5.20;;
72895;SDS011;61036;53.224;6.554;2022-12-26T10:00:16;11.13;;;2.70;;
72895;SDS011;61036;53.224;6.554;2022-12-26T10:02:48;11.37;;;3.07;;
72895;SDS011;61036;53.224;6.554;2022-12-26T10:05:21;11.53;;;3.20;;
72895;SDS011;61036;53.224;6.554;2022-12-26T10:08:42;13.10;;;3.67;;
72895;SDS011;61036;53.224;6.554;2022-12-26T10:10:58;16.07;;;3.00;;
72895;SDS011;61036;53.224;6.554;2022-12-26T10:13:46;12.50;;;3.57;;
72895;SDS011;61036;53.224;6.554;2022-12-26T10:24:33;16.63;;;6.23;;
72895;SDS011;61036;53.224;6.554;2022-12-26T10:27:08;16.57;;;6.63;;
72895;SDS011;61036;53.224;6.554;2022-12-26T10:29:39;15.43;;;5.73;;
72895;SDS011;61036;53.224;6.554;2022-12-26T10:39:56;17.80;;;4.80;;
72895;SDS011;61036;53.224;6.554;2022-12-26T10:42:38;12.13;;;3.50;;
72895;SDS011;61036;53.224;6.554;2022-12-26T10:45:15;13.80;;;4.83;;
72895;SDS011;61036;53.224;6.554;2022-12-26T10:47:55;9.30;;;3.63;;
72895;SDS011;61036;53.224;6.554;2022-12-26T10:50:29;9.53;;;2.50;;
72895;SDS011;61036;53.224;6.554;2022-12-26T10:52:57;7.93;;;1.87;;
72895;SDS011;61036;53.224;6.554;2022-12-26T10:55:30;11.00;;;3.50;;
72895;SDS011;61036;53.224;6.554;2022-12-26T10:58:14;11.07;;;2.17;;
72895;SDS011;61036;53.224;6.554;2022-12-26T11:04:00;14.43;;;4.40;;
72895;SDS011;61036;53.224;6.554;2022-12-26T11:06:35;11.30;;;2.70;;
72895;SDS011;61036;53.224;6.554;2022-12-26T11:09:06;10.93;;;4.43;;
72895;SDS011;61036;53.224;6.554;2022-12-26T11:11:47;11.03;;;2.20;;
72895;SDS011;61036;53.224;6.554;2022-12-26T11:16:59;11.37;;;2.60;;
72895;SDS011;61036;53.224;6.554;2022-12-26T11:19:32;13.03;;;2.83;;
72895;SDS011;61036;53.224;6.554;2022-12-26T11:24:45;10.80;;;2.00;;
72895;SDS011;61036;53.224;6.554;2022-12-26T11:27:36;10.10;;;1.83;;
72895;SDS011;61036;53.224;6.554;2022-12-26T11:32:40;14.03;;;3.07;;
72895;SDS011;61036;53.224;6.554;2022-12-26T11:35:17;9.17;;;2.43;;
72895;SDS011;61036;53.224;6.554;2022-12-26T11:37:54;11.13;;;2.30;;
72895;SDS011;61036;53.224;6.554;2022-12-26T11:40:23;12.03;;;2.93;;
72895;SDS011;61036;53.224;6.554;2022-12-26T11:42:55;10.60;;;3.10;;
72895;SDS011;61036;53.224;6.554;2022-12-26T11:45:25;9.47;;;2.40;;
72895;SDS011;61036;53.224;6.554;2022-12-26T11:47:53;9.40;;;2.00;;
72895;SDS011;61036;53.224;6.554;2022-12-26T11:50:24;12.03;;;3.13;;
72895;SDS011;61036;53.224;6.554;2022-12-26T11:58:12;9.30;;;2.03;;
72895;SDS011;61036;53.224;6.554;2022-12-26T12:03:31;7.93;;;2.40;;
72895;SDS011;61036;53.224;6.554;2022-12-26T12:08:57;14.07;;;2.30;;
72895;SDS011;61036;53.224;6.554;2022-12-26T12:17:29;10.20;;;2.17;;
72895;SDS011;61036;53.224;6.554;2022-12-26T12:25:35;13.80;;;2.73;;
72895;SDS011;61036;53.224;6.554;2022-12-26T12:37:22;12.83;;;2.43;;
72895;SDS011;61036;53.224;6.554;2022-12-26T12:43:05;11.27;;;2.67;;
72895;SDS011;61036;53.224;6.554;2022-12-26T12:45:42;11.00;;;2.60;;
72895;SDS011;61036;53.224;6.554;2022-12-26T12:48:22;19.90;;;3.10;;
72895;SDS011;61036;53.224;6.554;2022-12-26T12:56:55;13.33;;;2.90;;
72895;SDS011;61036;53.224;6.554;2022-12-26T13:02:25;15.07;;;3.30;;
72895;SDS011;61036;53.224;6.554;2022-12-26T13:05:04;14.60;;;4.47;;
72895;SDS011;61036;53.224;6.554;2022-12-26T13:07:39;13.03;;;2.93;;
72895;SDS011;61036;53.224;6.554;2022-12-26T13:10:18;12.70;;;2.87;;
72895;SDS011;61036;53.224;6.554;2022-12-26T13:13:28;14.77;;;3.00;;
72895;SDS011;61036;53.224;6.554;2022-12-26T13:15:57;9.37;;;2.40;;
72895;SDS011;61036;53.224;6.554;2022-12-26T13:18:30;9.50;;;2.40;;
72895;SDS011;61036;53.224;6.554;2022-12-26T13:21:03;14.90;;;2.73;;
72895;SDS011;61036;53.224;6.554;2022-12-26T13:23:43;12.60;;;2.57;;
72895;SDS011;61036;53.224;6.554;2022-12-26T13:26:36;12.03;;;2.60;;
72895;SDS011;61036;53.224;6.554;2022-12-26T13:29:07;14.77;;;2.93;;
72895;SDS011;61036;53.224;6.554;2022-12-26T13:31:38;18.67;;;3.63;;
72895;SDS011;61036;53.224;6.554;2022-12-26T13:34:07;10.67;;;2.70;;
72895;SDS011;61036;53.224;6.554;2022-12-26T13:44:39;9.53;;;2.50;;
72895;SDS011;61036;53.224;6.554;2022-12-26T13:47:04;12.70;;;3.40;;
72895;SDS011;61036;53.224;6.554;2022-12-26T13:49:50;8.90;;;2.50;;
72895;SDS011;61036;53.224;6.554;2022-12-26T13:52:37;12.30;;;2.97;;
72895;SDS011;61036;53.224;6.554;2022-12-26T14:11:35;18.30;;;9.63;;
72895;SDS011;61036;53.224;6.554;2022-12-26T14:33:42;12.43;;;3.60;;
72895;SDS011;61036;53.224;6.554;2022-12-26T14:36:23;12.27;;;3.37;;
72895;SDS011;61036;53.224;6.554;2022-12-26T14:42:22;16.17;;;4.20;;
72895;SDS011;61036;53.224;6.554;2022-12-26T14:45:12;9.43;;;2.63;;
72895;SDS011;61036;53.224;6.554;2022-12-26T14:47:55;12.10;;;2.73;;
72895;SDS011;61036;53.224;6.554;2022-12-26T14:55:57;13.93;;;3.20;;
72895;SDS011;61036;53.224;6.554;2022-12-26T15:03:55;12.53;;;3.03;;
72895;SDS011;61036;53.224;6.554;2022-12-26T15:18:35;15.60;;;4.57;;
72895;SDS011;61036;53.224;6.554;2022-12-26T15:21:29;10.60;;;3.40;;
72895;SDS011;61036;53.224;6.554;2022-12-26T15:24:13;11.40;;;3.93;;
72895;SDS011;61036;53.224;6.554;2022-12-26T15:27:34;14.07;;;3.50;;
72895;SDS011;61036;53.224;6.554;2022-12-26T15:35:21;15.57;;;4.17;;
72895;SDS011;61036;53.224;6.554;2022-12-26T15:40:57;14.87;;;3.97;;
72895;SDS011;61036;53.224;6.554;2022-12-26T15:46:27;21.07;;;3.43;;
72895;SDS011;61036;53.224;6.554;2022-12-26T15:52:03;11.33;;;2.80;;
72895;SDS011;61036;53.224;6.554;2022-12-26T16:00:13;15.23;;;3.00;;
72895;SDS011;61036;53.224;6.554;2022-12-26T16:11:21;9.93;;;2.60;;
72895;SDS011;61036;53.224;6.554;2022-12-26T16:14:00;9.97;;;2.73;;
72895;SDS011;61036;53.224;6.554;2022-12-26T16:16:34;13.73;;;3.20;;
72895;SDS011;61036;53.224;6.554;2022-12-26T16:19:20;14.33;;;3.37;;
72895;SDS011;61036;53.224;6.554;2022-12-26T16:21:49;9.67;;;2.70;;
72895;SDS011;61036;53.224;6.554;2022-12-26T16:24:40;12.90;;;3.67;;
72895;SDS011;61036;53.224;6.554;2022-12-26T16:27:08;13.93;;;3.50;;
72895;SDS011;61036;53.224;6.554;2022-12-26T16:29:47;14.60;;;3.33;;
72895;SDS011;61036;53.224;6.554;2022-12-26T16:32:17;13.47;;;3.90;;
72895;SDS011;61036;53.224;6.554;2022-12-26T16:34:45;10.97;;;3.47;;
72895;SDS011;61036;53.224;6.554;2022-12-26T16:37:19;17.87;;;4.30;;
72895;SDS011;61036;53.224;6.554;2022-12-26T16:42:41;13.00;;;3.73;;
72895;SDS011;61036;53.224;6.554;2022-12-26T16:45:13;13.40;;;3.37;;
72895;SDS011;61036;53.224;6.554;2022-12-26T16:47:50;14.13;;;3.73;;
72895;SDS011;61036;53.224;6.554;2022-12-26T16:50:22;13.13;;;3.40;;
72895;SDS011;61036;53.224;6.554;2022-12-26T16:58:03;16.30;;;6.00;;
72895;SDS011;61036;53.224;6.554;2022-12-26T17:08:54;16.37;;;5.90;;
72895;SDS011;61036;53.224;6.554;2022-12-26T17:11:32;14.47;;;5.73;;
72895;SDS011;61036;53.224;6.554;2022-12-26T17:14:05;13.63;;;5.93;;
72895;SDS011;61036;53.224;6.554;2022-12-26T17:16:40;15.13;;;4.10;;
72895;SDS011;61036;53.224;6.554;2022-12-26T17:19:19;11.00;;;4.73;;
72895;SDS011;61036;53.224;6.554;2022-12-26T17:24:32;17.80;;;6.60;;
72895;SDS011;61036;53.224;6.554;2022-12-26T17:32:25;10.40;;;4.40;;
72895;SDS011;61036;53.224;6.554;2022-12-26T17:35:15;15.70;;;4.37;;
72895;SDS011;61036;53.224;6.554;2022-12-26T17:37:44;12.87;;;5.17;;
72895;SDS011;61036;53.224;6.554;2022-12-26T17:42:50;16.77;;;4.50;;
72895;SDS011;61036;53.224;6.554;2022-12-26T17:45:19;10.67;;;3.87;;
72895;SDS011;61036;53.224;6.554;2022-12-26T17:47:53;14.87;;;4.03;;
72895;SDS011;61036;53.224;6.554;2022-12-26T17:50:22;12.43;;;3.40;;
72895;SDS011;61036;53.224;6.554;2022-12-26T17:52:53;11.03;;;2.93;;
72895;SDS011;61036;53.224;6.554;2022-12-26T17:55:21;14.37;;;3.33;;
72895;SDS011;61036;53.224;6.554;2022-12-26T17:57:50;14.93;;;4.40;;
72895;SDS011;61036;53.224;6.554;2022-12-26T18:00:17;11.80;;;5.03;;
72895;SDS011;61036;53.224;6.554;2022-12-26T18:02:45;13.70;;;3.33;;
72895;SDS011;61036;53.224;6.554;2022-12-26T18:05:14;14.03;;;4.00;;
72895;SDS011;61036;53.224;6.554;2022-12-26T18:07:43;15.33;;;2.90;;
72895;SDS011;61036;53.224;6.554;2022-12-26T18:10:23;13.57;;;3.27;;
72895;SDS011;61036;53.224;6.554;2022-12-26T18:12:55;14.03;;;3.70;;
72895;SDS011;61036;53.224;6.554;2022-12-26T18:15:22;11.43;;;3.13;;
72895;SDS011;61036;53.224;6.554;2022-12-26T18:17:50;14.07;;;3.57;;
72895;SDS011;61036;53.224;6.554;2022-12-26T18:20:21;12.87;;;3.50;;
72895;SDS011;61036;53.224;6.554;2022-12-26T18:22:52;10.07;;;2.93;;
72895;SDS011;61036;53.224;6.554;2022-12-26T18:25:20;18.50;;;6.27;;
72895;SDS011;61036;53.224;6.554;2022-12-26T18:27:54;23.80;;;11.87;;
72895;SDS011;61036;53.224;6.554;2022-12-26T18:30:21;13.37;;;5.77;;
72895;SDS011;61036;53.224;6.554;2022-12-26T18:32:52;13.80;;;5.00;;
72895;SDS011;61036;53.224;6.554;2022-12-26T18:35:18;10.83;;;3.17;;
72895;SDS011;61036;53.224;6.554;2022-12-26T18:37:48;10.90;;;3.60;;
72895;SDS011;61036;53.224;6.554;2022-12-26T18:40:37;8.23;;;2.80;;
72895;SDS011;61036;53.224;6.554;2022-12-26T18:43:06;13.97;;;2.90;;
72895;SDS011;61036;53.224;6.554;2022-12-26T18:45:32;10.53;;;2.77;;
72895;SDS011;61036;53.224;6.554;2022-12-26T18:48:02;10.50;;;2.60;;
72895;SDS011;61036;53.224;6.554;2022-12-26T18:50:28;11.60;;;3.37;;
72895;SDS011;61036;53.224;6.554;2022-12-26T18:52:57;9.03;;;3.27;;
72895;SDS011;61036;53.224;6.554;2022-12-26T18:55:23;12.80;;;3.70;;
72895;SDS011;61036;53.224;6.554;2022-12-26T18:57:50;27.57;;;4.97;;
72895;SDS011;61036;53.224;6.554;2022-12-26T19:00:19;13.43;;;4.23;;
72895;SDS011;61036;53.224;6.554;2022-12-26T19:02:47;16.10;;;3.57;;
72895;SDS011;61036;53.224;6.554;2022-12-26T19:05:17;8.07;;;3.00;;
72895;SDS011;61036;53.224;6.554;2022-12-26T19:07:45;18.40;;;7.00;;
72895;SDS011;61036;53.224;6.554;2022-12-26T19:10:13;11.90;;;4.40;;
72895;SDS011;61036;53.224;6.554;2022-12-26T19:12:42;15.27;;;5.17;;
72895;SDS011;61036;53.224;6.554;2022-12-26T19:15:09;14.93;;;6.43;;
72895;SDS011;61036;53.224;6.554;2022-12-26T19:17:40;11.97;;;4.07;;
72895;SDS011;61036;53.224;6.554;2022-12-26T19:20:09;13.10;;;3.90;;
72895;SDS011;61036;53.224;6.554;2022-12-26T19:22:42;11.53;;;3.90;;
72895;SDS011;61036;53.224;6.554;2022-12-26T19:25:09;17.07;;;4.63;;